Terminal Aerodrome Forecast
Issued by NWS

Home | Current Version | Previous Version | Text Only | Print | Product List | Glossary On
Versions: 1 2 3 4 5 6 7 8 9 10 11 12 13 14 15 16 17 18 19 20 21
000
FTUS44 KLZK 190300 AAB
TAFHOT
TAF AMD
KHOT 190342Z 1904/1924 09005KT P6SM SCT007 OVC020
      TEMPO 1904/1908 4SM BR BKN007
     FM190800 VRB03KT 4SM BR OVC007
      TEMPO 1910/1914 1SM BR OVC012
     FM191400 22004KT P6SM BKN020
     FM191700 20007KT P6SM SCT030 BKN250 PROB30 1920/1924 3SM TSRA
      BR BKN020CB=

USA.gov is the U.S. government's official web portal to all federal, state and local government web resources and services.